HSKO2: Arkansas River, Haskell, OK

Data processed at Fri Mar 09 2018 23:14


All information presented herein is the property of the government of the United States of America and may be revised or deleted at any time without prior notice.
Dissemination of this information without the expressed written consent of the Public Affairs Office, Tulsa District U.S. Army Corps of Engineers is strictly prohibited.
These data are gathered electronically and, as presented, have not undergone any form of quality control. These data are not guaranteed to be valid or correct.
Go to home page.
Go to station list.

Upstream stations:

Downstream station:
Previous Day
Next Day
Current Day
    
SHEF ID:       HSKO2     Arkansas River near Haskell, OK
STATION TYPE:  

               PRECIP     STAGE  STAGE(2)  RIV-FLOW  BAT-LOAD
                   in        ft        ft       cfs      volt
              Ccp-Rev   Ccp-Rev   Ccp-Rev   Ccp-Rev   Ccp-Rev
(US/Central)
03/07 00:00      0.00      5.02      5.01      4608     12.57
03/07 01:00      0.00      4.96      4.94      4443     12.49
03/07 02:00      0.00      4.90      4.87      4280     12.49
03/07 03:00      0.00      4.83      4.78      4095     12.41
03/07 04:00      0.00      4.70      4.67      3760     12.41
03/07 05:00      0.00      4.63      4.57      3584     12.41
03/07 06:00      0.00      4.52      4.46      3305     12.41
03/07 07:00      0.00      4.44      4.38      3104     12.41
03/07 08:00      0.00      4.32      4.30      2813     12.49
03/07 09:00      0.00      4.24      4.25      2620     13.53
03/07 10:00      0.00      4.23      4.25      2595     13.60
03/07 11:00      0.00      4.32      4.31      2813     13.60
03/07 12:00      0.00      4.46      4.41      3154     13.60
03/07 13:00      0.00      4.55      4.53      3381     13.60
03/07 14:00      0.00      4.65      4.70      3634     13.60
03/07 15:00      0.00      4.72      4.66      3811     13.60
03/07 16:00      0.00      4.79      4.73      3991     13.60
03/07 17:00      0.00      4.74      4.75      3862     13.53
03/07 18:00      0.00      4.76      4.72      3913     13.44
03/07 19:00      0.00      4.70      4.66      3760     13.29
03/07 20:00      0.00      4.63      4.58      3584     12.81
03/07 21:00      0.00      4.53      4.45      3330     12.65
03/07 22:00      0.00      4.44      4.40      3104     12.57
03/07 23:00      0.00      4.35      4.30      2886     12.57